Home > Products > Valid Products > TAF

000
FTUS41 KCTP 251818 AAA
TAFJST
TAF AMD
KJST 251818Z 2518/2618 26016G27KT P6SM SCT025 BKN080
     FM252000 24015G25KT P6SM SCT025 BKN040
     FM260300 29014G24KT P6SM BKN017 OVC025
     FM261500 30018G32KT P6SM OVC022=



000
FTUS41 KCTP 251818 AAA
TAFJST
TAF AMD
KJST 251818Z 2518/2618 26016G27KT P6SM SCT025 BKN080
     FM252000 24015G25KT P6SM SCT025 BKN040
     FM260300 29014G24KT P6SM BKN017 OVC025
     FM261500 30018G32KT P6SM OVC022=



000
FTUS41 KCTP 251740
TAFIPT
TAF
KIPT 251740Z 2518/2618 26014G18KT P6SM BKN040 BKN070
     FM252000 25015G25KT P6SM SCT035 BKN050
     FM260200 28014G24KT P6SM VCSH BKN035
     FM261500 30018G32KT P6SM BKN035=



000
FTUS41 KCTP 251740
TAFBFD
TAF
KBFD 251740Z 2518/2618 25011G22KT P6SM SCT025 BKN050
     FM252200 26011G20KT P6SM VCSH BKN025 OVC040
     FM260100 29013G21KT P6SM BKN023 OVC035
     FM261500 30014G26KT P6SM OVC022=



000
FTUS41 KCTP 251740
TAFMDT
TAF
KMDT 251740Z 2518/2618 27012G17KT P6SM SCT250
     FM251900 26012G20KT P6SM SCT070
     FM260500 28012G20KT P6SM BKN040
     FM261400 30015G28KT P6SM SCT040=



000
FTUS41 KCTP 251740
TAFJST
TAF
KJST 251740Z 2518/2618 26016G27KT P6SM BKN025 BKN080
     FM252000 24015G25KT P6SM SCT025 BKN040
     FM260300 29014G24KT P6SM BKN017 OVC025
     FM261500 30018G32KT P6SM OVC022=



000
FTUS41 KCTP 251740
TAFUNV
TAF
KUNV 251740Z 2518/2618 25014G25KT P6SM BKN045 BKN070
     FM252000 25015G25KT P6SM SCT035 BKN050
     FM260200 29014G24KT P6SM BKN035
     FM261500 30018G32KT P6SM SCT035=



000
FTUS41 KCTP 251740
TAFAOO
TAF
KAOO 251740Z 2518/2618 26015G25KT P6SM SCT045 BKN070
     FM252000 25015G25KT P6SM SCT035 BKN050
     FM260300 29014G24KT P6SM BKN035
     FM261500 30018G32KT P6SM SCT035=



000
FTUS41 KCTP 251740
TAFBFD
TAF
KBFD 251740Z 2518/2618 25011G22KT P6SM SCT025 BKN050
     FM252200 26011G20KT P6SM VCSH BKN025 OVC040
     FM260100 29013G21KT P6SM BKN023 OVC035
     FM261500 30014G26KT P6SM OVC022=



000
FTUS41 KCTP 251740
TAFUNV
TAF
KUNV 251740Z 2518/2618 25014G25KT P6SM BKN045 BKN070
     FM252000 25015G25KT P6SM SCT035 BKN050
     FM260200 29014G24KT P6SM BKN035
     FM261500 30018G32KT P6SM SCT035=



000
FTUS41 KCTP 251740
TAFJST
TAF
KJST 251740Z 2518/2618 26016G27KT P6SM BKN025 BKN080
     FM252000 24015G25KT P6SM SCT025 BKN040
     FM260300 29014G24KT P6SM BKN017 OVC025
     FM261500 30018G32KT P6SM OVC022=



000
FTUS41 KCTP 251740
TAFIPT
TAF
KIPT 251740Z 2518/2618 26014G18KT P6SM BKN040 BKN070
     FM252000 25015G25KT P6SM SCT035 BKN050
     FM260200 28014G24KT P6SM VCSH BKN035
     FM261500 30018G32KT P6SM BKN035=



000
FTUS41 KCTP 251740
TAFMDT
TAF
KMDT 251740Z 2518/2618 27012G17KT P6SM SCT250
     FM251900 26012G20KT P6SM SCT070
     FM260500 28012G20KT P6SM BKN040
     FM261400 30015G28KT P6SM SCT040=



000
FTUS41 KCTP 251740
TAFAOO
TAF
KAOO 251740Z 2518/2618 26015G25KT P6SM SCT045 BKN070
     FM252000 25015G25KT P6SM SCT035 BKN050
     FM260300 29014G24KT P6SM BKN035
     FM261500 30018G32KT P6SM SCT035=



000
FTUS41 KCTP 251723 AAD
TAFJST
TAF AMD
KJST 251723Z 2517/2612 26016G27KT P6SM BKN025 BKN080
     FM252000 24015G25KT P6SM SCT025 BKN080
     FM260300 29014KT P6SM SCT040=



000
FTUS41 KCTP 251705 AAC
TAFJST
TAF AMD
KJST 251705Z 2517/2612 25016G27KT P6SM SCT025 BKN080
     FM251900 24015G25KT P6SM SCT025 BKN080
     FM260300 29014KT P6SM SCT040=



000
FTUS41 KCTP 251640 AAB
TAFJST
TAF AMD
KJST 251640Z 2517/2612 25012G24KT P6SM BKN022 BKN030
     FM251900 26012G22KT P6SM SCT025 BKN100
     FM260300 29014KT P6SM SCT040=



000
FTUS41 KCTP 251640 AAB
TAFJST
TAF AMD
KJST 251640Z 2517/2612 25012G24KT P6SM BKN022 BKN030
     FM251900 26012G22KT P6SM SCT025 BKN100
     FM260300 29014KT P6SM SCT040=



000
FTUS41 KCTP 251621 AAB
TAFUNV
TAF AMD
KUNV 251621Z 2516/2612 26015G24KT P6SM SCT050 SCT100
     FM251800 25014G23KT P6SM SCT050 BKN080
     FM260200 28010KT P6SM SCT045=



000
FTUS41 KCTP 251618 AAB
TAFAOO
TAF AMD
KAOO 251618Z 2516/2612 28014G15KT P6SM SCT050
     FM251800 26015G25KT P6SM SCT045 BKN100
     FM260300 29012KT P6SM SCT045=



000
FTUS41 KCTP 251535 AAA
TAFMDT
TAF AMD
KMDT 251535Z 2516/2612 27007KT P6SM SCT050 SCT250
     FM251800 27009G18KT P6SM SCT050=



000
FTUS41 KCTP 251533 AAA
TAFIPT
TAF AMD
KIPT 251533Z 2516/2612 25009G15KT P6SM SCT050
     FM251800 25009G18KT P6SM SCT050 BKN100
     FM260300 29007KT P6SM SCT050=



000
FTUS41 KCTP 251532 AAA
TAFUNV
TAF AMD
KUNV 251532Z 2516/2612 23010G16KT P6SM SCT050 SCT100
     FM251630 25011G22KT P6SM SCT050 SCT100
     FM260200 28010KT P6SM SCT045=



000
FTUS41 KCTP 251531 AAB
TAFBFD
TAF AMD
KBFD 251531Z 2516/2612 24008G15KT P6SM SCT025 BKN070
     FM251700 25010G20KT P6SM BKN050
     FM252100 26008KT P6SM -SHRA BKN025
     FM260000 29010KT P6SM SCT045=



000
FTUS41 KCTP 251516 AAA
TAFAOO
TAF AMD
KAOO 251516Z 2515/2612 25009G15KT P6SM BKN040
     FM251630 26011G21KT P6SM SCT045 BKN100
     FM260300 29012KT P6SM SCT045=



000
FTUS41 KCTP 251515 AAA
TAFJST
TAF AMD
KJST 251515Z 2515/2612 25010G16KT P6SM BKN022 BKN035
     FM251630 26012G22KT P6SM SCT025 BKN100
     FM260300 29014KT P6SM SCT040=



000
FTUS41 KCTP 251458 AAA
TAFBFD
TAF AMD
KBFD 251458Z 2515/2612 24006KT P6SM SCT025 BKN070
     FM251600 25010G20KT P6SM BKN050
     FM252100 26008KT P6SM -SHRA BKN025
     FM260000 29010KT P6SM SCT045=



000
FTUS41 KCTP 251131
TAFJST
TAF
KJST 251131Z 2512/2612 25008KT P6SM BKN040
     FM251500 26012G22KT P6SM SCT050
     FM260300 29014KT P6SM SCT040=



000
FTUS41 KCTP 251131
TAFUNV
TAF
KUNV 251131Z 2512/2612 24005KT P6SM BKN045
     FM251500 25011G21KT P6SM SCT050
     FM260200 28010KT P6SM SCT045=



000
FTUS41 KCTP 251131
TAFIPT
TAF
KIPT 251131Z 2512/2612 28005KT P6SM BKN050
     FM251800 25009G18KT P6SM BKN050
     FM260300 29007KT P6SM SCT050=



000
FTUS41 KCTP 251131
TAFAOO
TAF
KAOO 251131Z 2512/2612 25006KT P6SM SCT045
     FM251500 26011G21KT P6SM SCT050
     FM260300 29012KT P6SM SCT045=



000
FTUS41 KCTP 251131
TAFMDT
TAF
KMDT 251131Z 2512/2612 30005KT P6SM SCT050
     FM251800 27009G18KT P6SM SCT050=



000
FTUS41 KCTP 251131
TAFAOO
TAF
KAOO 251131Z 2512/2612 25006KT P6SM SCT045
     FM251500 26011G21KT P6SM SCT050
     FM260300 29012KT P6SM SCT045=



000
FTUS41 KCTP 251131
TAFJST
TAF
KJST 251131Z 2512/2612 25008KT P6SM BKN040
     FM251500 26012G22KT P6SM SCT050
     FM260300 29014KT P6SM SCT040=



000
FTUS41 KCTP 251131
TAFIPT
TAF
KIPT 251131Z 2512/2612 28005KT P6SM BKN050
     FM251800 25009G18KT P6SM BKN050
     FM260300 29007KT P6SM SCT050=



000
FTUS41 KCTP 251131
TAFUNV
TAF
KUNV 251131Z 2512/2612 24005KT P6SM BKN045
     FM251500 25011G21KT P6SM SCT050
     FM260200 28010KT P6SM SCT045=



000
FTUS41 KCTP 251131
TAFBFD
TAF
KBFD 251131Z 2512/2612 23003KT P6SM OVC035
      TEMPO 2512/2513 OVC030
     FM251400 25010G20KT P6SM BKN050
     FM252100 26008KT P6SM -SHRA BKN025
     FM260000 29010KT P6SM SCT045=



000
FTUS41 KCTP 251131
TAFMDT
TAF
KMDT 251131Z 2512/2612 30005KT P6SM SCT050
     FM251800 27009G18KT P6SM SCT050=



000
FTUS41 KCTP 251131
TAFBFD
TAF
KBFD 251131Z 2512/2612 23003KT P6SM OVC035
      TEMPO 2512/2513 OVC030
     FM251400 25010G20KT P6SM BKN050
     FM252100 26008KT P6SM -SHRA BKN025
     FM260000 29010KT P6SM SCT045=



000
FTUS41 KCTP 250933 AAA
TAFMDT
TAF AMD
KMDT 250933Z 2510/2606 30005KT P6SM SCT050
     FM251800 27009G18KT P6SM SCT050=



000
FTUS41 KCTP 250930 AAA
TAFIPT
TAF AMD
KIPT 250930Z 2510/2606 28005KT P6SM BKN050
     FM251800 25009G18KT P6SM BKN050
     FM260300 29007KT P6SM SCT050=



000
FTUS41 KCTP 250926 AAA
TAFUNV
TAF AMD
KUNV 250926Z 2509/2606 24005KT P6SM BKN045
     FM251500 25011G21KT P6SM SCT050
     FM260200 28010G20KT P6SM SCT045=



000
FTUS41 KCTP 250925 AAA
TAFAOO
TAF AMD
KAOO 250925Z 2509/2606 25006KT P6SM SCT045
     FM251500 26011G21KT P6SM SCT050
     FM260300 29012G22KT P6SM SCT045=



000
FTUS41 KCTP 250924 AAA
TAFJST
TAF AMD
KJST 250924Z 2509/2606 25008KT P6SM BKN040
     FM251500 26012G22KT P6SM SCT050
     FM260300 29014G26KT P6SM SCT040=



000
FTUS41 KCTP 250921 AAA
TAFBFD
TAF AMD
KBFD 250921Z 2509/2606 23003KT P6SM OVC035
      TEMPO 2510/2513 OVC030
     FM251400 25010G20KT P6SM BKN050
     FM252100 26008KT P6SM -SHRA BKN025
     FM260000 29010KT P6SM SCT045=



000
FTUS41 KCTP 250540
TAFBFD
TAF
KBFD 250540Z 2506/2606 26002KT P6SM BKN040
     FM251400 25010G20KT P6SM BKN050
     FM252200 26008KT P6SM -SHRA BKN025
     FM260000 28010KT P6SM SCT045=



000
FTUS41 KCTP 250540
TAFJST
TAF
KJST 250540Z 2506/2606 25008KT P6SM BKN040
     FM251500 26012G22KT P6SM SCT050
     FM260300 29014G26KT P6SM SCT040=



000
FTUS41 KCTP 250540
TAFMDT
TAF
KMDT 250540Z 2506/2606 30005KT P6SM SKC
     FM251200 27008KT P6SM SCT050=



000
FTUS41 KCTP 250540
TAFIPT
TAF
KIPT 250540Z 2506/2606 28005KT P6SM SKC
     FM250900 27007KT P6SM BKN050=



000
FTUS41 KCTP 250540
TAFUNV
TAF
KUNV 250540Z 2506/2606 24005KT P6SM BKN045
     FM251500 25011G21KT P6SM SCT050
     FM260200 28010G20KT P6SM SCT045=



000
FTUS41 KCTP 250540
TAFAOO
TAF
KAOO 250540Z 2506/2606 24005KT P6SM SCT050
     FM251500 26011G21KT P6SM SCT050
     FM260300 29012G22KT P6SM SCT045=



000
FTUS41 KCTP 250349 AAB
TAFBFD
TAF AMD
KBFD 250349Z 2504/2524 00000KT P6SM SCT040
     FM250600 27003KT P6SM BKN030
     FM250900 26006KT P6SM BKN050
     FM251500 25012G24KT P6SM VCSH BKN025 OVC060=



000
FTUS41 KCTP 250349 AAB
TAFBFD
TAF AMD
KBFD 250349Z 2504/2524 00000KT P6SM SCT040
     FM250600 27003KT P6SM BKN030
     FM250900 26006KT P6SM BKN050
     FM251500 25012G24KT P6SM VCSH BKN025 OVC060=



000
FTUS41 KCTP 250308 AAA
TAFMDT
TAF AMD
KMDT 250308Z 2503/2524 31008KT P6SM SKC
     FM250400 27004KT P6SM SCT070
     FM251500 28010G18KT P6SM SCT040 SCT070=



000
FTUS41 KCTP 250308 AAA
TAFAOO
TAF AMD
KAOO 250308Z 2503/2524 24005KT P6SM SKC
     FM250600 25006KT P6SM SCT035 BKN180
     FM251500 27014G25KT P6SM BKN035 BKN070=



000
FTUS41 KCTP 250308 AAA
TAFIPT
TAF AMD
KIPT 250308Z 2503/2524 28008KT P6SM SKC
     FM251500 27011G19KT P6SM BKN035 BKN070=



000
FTUS41 KCTP 250308 AAA
TAFJST
TAF AMD
KJST 250308Z 2503/2524 27009KT P6SM SKC
     FM250600 25008KT P6SM BKN050
     FM251500 25010KT P6SM FEW250
     FM252100 27014G26KT P6SM BKN027 BKN060=



000
FTUS41 KCTP 250308 AAA
TAFUNV
TAF AMD
KUNV 250308Z 2503/2524 23005KT P6SM SKC
     FM250600 28006KT P6SM SCT035 BKN180
     FM251500 27014G25KT P6SM BKN035 BKN070=



000
FTUS41 KCTP 250308 AAA
TAFBFD
TAF AMD
KBFD 250308Z 2503/2524 28003KT P6SM SCT030
     FM250330 28003KT P6SM BKN030
     FM250600 27003KT P6SM BKN030
     FM250900 26006KT P6SM BKN050
     FM251500 25012G24KT P6SM VCSH BKN025 OVC060=



000
FTUS41 KCTP 242332
TAFJST
TAF
KJST 242332Z 2500/2524 27009KT P6SM BKN170
     FM250300 26008KT P6SM SCT035 BKN170
     FM251500 27014G26KT P6SM BKN027 BKN060=



000
FTUS41 KCTP 242332
TAFBFD
TAF
KBFD 242332Z 2500/2524 30005KT P6SM BKN150
     FM250300 28007KT P6SM BKN045 BKN150
     FM250900 26006KT P6SM BKN025
     FM251500 25012G24KT P6SM VCSH BKN025 OVC060=



000
FTUS41 KCTP 242332
TAFIPT
TAF
KIPT 242332Z 2500/2524 31008KT P6SM BKN220
     FM250200 28006KT P6SM SCT060 BKN220
     FM251500 27011G19KT P6SM BKN035 BKN070=



000
FTUS41 KCTP 242332
TAFUNV
TAF
KUNV 242332Z 2500/2524 28006KT P6SM BKN180
     FM250600 28006KT P6SM SCT035 BKN180
     FM251500 27014G25KT P6SM BKN035 BKN070=



000
FTUS41 KCTP 242332
TAFMDT
TAF
KMDT 242332Z 2500/2524 30007KT P6SM BKN220
     FM250400 27004KT P6SM SCT070 BKN220
     FM251500 28010G18KT P6SM SCT040 SCT070=



000
FTUS41 KCTP 242332
TAFAOO
TAF
KAOO 242332Z 2500/2524 29004KT P6SM BKN180
     FM250600 25006KT P6SM SCT035 BKN180
     FM251500 27014G25KT P6SM BKN035 BKN070=



000
FTUS41 KCTP 241804 AAA
TAFIPT
TAF AMD
KIPT 241804Z 2418/2518 31008G15KT P6SM SCT220
     FM250200 28006KT P6SM SCT060 BKN220
     FM251500 27011G19KT P6SM BKN035 BKN070=



000
FTUS41 KCTP 241804 AAA
TAFUNV
TAF AMD
KUNV 241804Z 2418/2518 27009G15KT P6SM BKN230
     FM242300 28006KT P6SM BKN230
     FM250600 28006KT P6SM SCT035 BKN180
     FM251500 27014G25KT P6SM BKN035 BKN070=



000
FTUS41 KCTP 241803 AAA
TAFAOO
TAF AMD
KAOO 241803Z 2418/2518 31010G16KT P6SM BKN230
     FM242300 27006KT P6SM BKN230
     FM250600 25006KT P6SM SCT035 BKN180
     FM251500 27014G25KT P6SM BKN035 BKN070=



000
FTUS41 KCTP 241740
TAFIPT
TAF
KIPT 241740Z 2418/2518 29008G15KT P6SM SCT220
     FM250200 28006KT P6SM SCT060 BKN220
     FM251500 27011G19KT P6SM BKN035 BKN070=



000
FTUS41 KCTP 241740
TAFUNV
TAF
KUNV 241740Z 2418/2518 30009G15KT P6SM BKN230
     FM242300 29006KT P6SM BKN230
     FM250600 28006KT P6SM SCT035 BKN180
     FM251500 27014G25KT P6SM BKN035 BKN070=



000
FTUS41 KCTP 241740
TAFJST
TAF
KJST 241740Z 2418/2518 29010G17KT P6SM BKN220
     FM242000 27010KT P6SM SCT015 BKN220
     FM250300 26008KT P6SM SCT035 BKN170
     FM251500 27014G26KT P6SM BKN027 BKN060=



000
FTUS41 KCTP 241740
TAFMDT
TAF
KMDT 241740Z 2418/2518 30013KT P6SM SCT250
     FM242300 29007KT P6SM SCT250
     FM250400 27004KT P6SM SCT070 BKN220
     FM251500 28010G18KT P6SM SCT040 SCT070=



000
FTUS41 KCTP 241740
TAFAOO
TAF
KAOO 241740Z 2418/2518 29010G16KT P6SM BKN230
     FM242300 27006KT P6SM BKN230
     FM250600 25006KT P6SM SCT035 BKN180
     FM251500 27014G25KT P6SM BKN035 BKN070=



000
FTUS41 KCTP 241740
TAFBFD
TAF
KBFD 241740Z 2418/2518 30010G17KT P6SM BKN220
     FM250300 28007KT P6SM BKN045 BKN150
     FM250900 26006KT P6SM BKN025
     FM251500 25012G24KT P6SM VCSH BKN025 OVC060=



000
FTUS41 KCTP 241548 AAB
TAFAOO
TAF AMD
KAOO 241548Z 2416/2512 29011G16KT P6SM BKN220
     FM242300 27006KT P6SM BKN220
     FM250600 25006KT P6SM SCT035 BKN180=



000
FTUS41 KCTP 241548 AAB
TAFMDT
TAF AMD
KMDT 241548Z 2416/2512 31013G18KT P6SM SCT250
     FM242300 29007KT P6SM SCT250
     FM250400 27004KT P6SM SCT070 BKN220=



000
FTUS41 KCTP 241548 AAB
TAFIPT
TAF AMD
KIPT 241548Z 2416/2512 30008G15KT P6SM SCT220
     FM250200 28006KT P6SM SCT060 BKN220=



000
FTUS41 KCTP 241548 AAB
TAFBFD
TAF AMD
KBFD 241548Z 2416/2512 30009KT P6SM SCT010 BKN200
     FM250300 28007KT P6SM BKN045 BKN150
     FM250900 26003KT P6SM BKN025=



000
FTUS41 KCTP 241548 AAD
TAFJST
TAF AMD
KJST 241548Z 2416/2512 28009G17KT P6SM SCT015 BKN220
     FM241700 27010KT P6SM SCT015 BKN220
     FM250300 26008KT P6SM SCT045 BKN170=



000
FTUS41 KCTP 241548 AAA
TAFUNV
TAF AMD
KUNV 241548Z 2416/2512 29009G15KT P6SM BKN220
     FM242300 29006KT P6SM BKN220
     FM250600 28006KT P6SM SCT035 BKN180=



000
FTUS41 KCTP 241524 AAA
TAFMDT
TAF AMD
KMDT 241524Z 2415/2512 31012G18KT P6SM SCT250
     FM242300 30007KT P6SM SCT200=



000
FTUS41 KCTP 241523 AAC
TAFJST
TAF AMD
KJST 241523Z 2415/2512 31013G20KT P6SM BKN013 BKN220
     FM241600 29010KT P6SM SCT015 BKN200=



000
FTUS41 KCTP 241422 AAA
TAFIPT
TAF AMD
KIPT 241422Z 2414/2512 27014G20KT P6SM SCT220
     FM241700 27010KT P6SM BKN220=



000
FTUS41 KCTP 241422 AAA
TAFIPT
TAF AMD
KIPT 241422Z 2414/2512 27014G20KT P6SM SCT220
     FM241700 27010KT P6SM BKN220=



000
FTUS41 KCTP 241420 AAB
TAFJST
TAF AMD
KJST 241420Z 2414/2512 31016G22KT P6SM SCT010
     FM241600 29010KT P6SM BKN200=



000
FTUS41 KCTP 241420 AAB
TAFJST
TAF AMD
KJST 241420Z 2414/2512 31016G22KT P6SM SCT010
     FM241600 29010KT P6SM BKN200=



000
FTUS41 KCTP 241245 AAA
TAFAOO
TAF AMD
KAOO 241245Z 2413/2512 30007KT P6SM SCT020 BKN220
     FM241315 30009KT P6SM BKN200=



000
FTUS41 KCTP 241245 AAA
TAFJST
TAF AMD
KJST 241245Z 2413/2512 31009KT P6SM SCT006
      TEMPO 2413/2414 BKN007
     FM241400 29010KT P6SM BKN200=



000
FTUS41 KCTP 241242 AAA
TAFBFD
TAF AMD
KBFD 241242Z 2413/2512 31009KT P6SM SCT010 BKN200
     FM250900 26003KT P6SM BKN025=



000
FTUS41 KCTP 241139
TAFAOO
TAF
KAOO 241139Z 2412/2512 30008KT P6SM BKN020
      TEMPO 2412/2413 30003KT SCT020
     FM241300 30009KT P6SM BKN200=



000
FTUS41 KCTP 241139
TAFJST
TAF
KJST 241139Z 2412/2512 31009KT 5SM BR OVC004
     FM241400 29010KT P6SM BKN200=



000
FTUS41 KCTP 241139
TAFBFD
TAF
KBFD 241139Z 2412/2512 30006KT P6SM SCT006
      TEMPO 2412/2413 BKN006
     FM241300 30007KT P6SM BKN200
     FM250900 26003KT P6SM BKN025=



000
FTUS41 KCTP 241139
TAFMDT
TAF
KMDT 241139Z 2412/2512 32012KT P6SM FEW035
     FM241330 31012G22KT P6SM SCT200
     FM242300 30007KT P6SM SCT200=



000
FTUS41 KCTP 241139
TAFIPT
TAF
KIPT 241139Z 2412/2512 29009KT P6SM SCT200=



000
FTUS41 KCTP 241139
TAFUNV
TAF
KUNV 241139Z 2412/2512 29004KT P6SM FEW030
     FM241300 29009KT P6SM BKN200=



000
FTUS41 KCTP 240923 AAA
TAFMDT
TAF AMD
KMDT 240923Z 2409/2506 32012KT P6SM BKN035
     FM241330 31012G22KT P6SM SCT200
     FM242300 30007KT P6SM SCT200=



000
FTUS41 KCTP 240921 AAB
TAFIPT
TAF AMD
KIPT 240921Z 2409/2506 29008KT P6SM BKN035
     FM241200 29009KT P6SM SCT200=



000
FTUS41 KCTP 240917 AAA
TAFUNV
TAF AMD
KUNV 240917Z 2409/2506 29004KT P6SM FEW030
     FM241300 29009KT P6SM BKN200=



000
FTUS41 KCTP 240915 AAB
TAFAOO
TAF AMD
KAOO 240915Z 2409/2506 30008KT P6SM BKN020
      TEMPO 2409/2413 30003KT SCT020
     FM241300 30009KT P6SM BKN200=



000
FTUS41 KCTP 240912 AAA
TAFJST
TAF AMD
KJST 240912Z 2409/2506 31012KT P6SM OVC004
     FM241330 29010KT P6SM BKN200=



000
FTUS41 KCTP 240910 AAA
TAFBFD
TAF AMD
KBFD 240910Z 2409/2506 30004KT P6SM FEW009
      TEMPO 2410/2412 30003KT 6SM BR BKN006
     FM241300 30007KT P6SM BKN200=



000
FTUS41 KCTP 240735 AAA
TAFAOO
TAF AMD
KAOO 240735Z 2408/2506 30008KT P6SM BKN015
      TEMPO 2408/2410 SCT015
     FM241000 30008KT P6SM BKN015
     FM241200 30009KT P6SM BKN200=



000
FTUS41 KCTP 240710 AAA
TAFIPT
TAF AMD
KIPT 240710Z 2407/2506 30008KT P6SM BKN035
      TEMPO 2407/2409 BKN030
     FM241200 29009KT P6SM SCT200=



000
FTUS41 KCTP 240535
TAFBFD
TAF
KBFD 240535Z 2406/2506 32009KT P6SM SKC
      TEMPO 2410/2412 31003KT 2SM BR BKN006
     FM241300 30007KT P6SM BKN200=



000
FTUS41 KCTP 240535
TAFUNV
TAF
KUNV 240535Z 2406/2506 32006KT P6SM SCT040
     FM241300 30009KT P6SM BKN200=



000
FTUS41 KCTP 240535
TAFJST
TAF
KJST 240535Z 2406/2506 31012G20KT P6SM OVC008
     FM241300 29010KT P6SM BKN200=



000
FTUS41 KCTP 240535
TAFIPT
TAF
KIPT 240535Z 2406/2506 30008KT P6SM BKN040
     FM241200 29009KT P6SM SCT200=



000
FTUS41 KCTP 240535
TAFMDT
TAF
KMDT 240535Z 2406/2506 32010KT P6SM BKN045
     FM241500 31012G22KT P6SM SCT200
     FM242300 30007KT P6SM SCT200=



000
FTUS41 KCTP 240535
TAFAOO
TAF
KAOO 240535Z 2406/2506 30008KT P6SM BKN020
      TEMPO 2406/2410 SCT020
     FM241000 30008KT P6SM BKN020
     FM241200 30009KT P6SM BKN200=



000
FTUS41 KCTP 240440 AAB
TAFJST
TAF AMD
KJST 240440Z 2405/2424 30014KT P6SM OVC010
     FM240500 29011KT P6SM OVC008
     FM241300 30010KT P6SM SKC=



000
FTUS41 KCTP 240428 AAB
TAFBFD
TAF AMD
KBFD 240428Z 2404/2424 32009KT P6SM SKC
     FM240900 31003KT 4SM BR VCFG SCT003
     FM241300 31007KT P6SM SKC=



000
FTUS41 KCTP 240350 AAA
TAFJST
TAF AMD
KJST 240350Z 2404/2424 31012G20KT P6SM SCT045
     FM241300 30010KT P6SM SKC=



000
FTUS41 KCTP 240350 AAA
TAFUNV
TAF AMD
KUNV 240350Z 2404/2424 32006KT P6SM BKN040 OVC050
     FM241400 30009KT P6SM SKC=



000
FTUS41 KCTP 240350 AAA
TAFMDT
TAF AMD
KMDT 240350Z 2404/2424 34009KT P6SM BKN050
     FM241300 30012G20KT P6SM SKC=



000
FTUS41 KCTP 240350 AAA
TAFAOO
TAF AMD
KAOO 240350Z 2404/2424 33006KT P6SM SCT035 BKN045
     FM241000 31009KT P6SM SKC=



000
FTUS41 KCTP 240350 AAA
TAFIPT
TAF AMD
KIPT 240350Z 2404/2424 32007KT P6SM BKN045
     FM241000 29008KT P6SM OVC025
     FM241400 30010KT P6SM SCT050=



000
FTUS41 KCTP 240350 AAA
TAFBFD
TAF AMD
KBFD 240350Z 2404/2424 32009KT P6SM BKN009 BKN045
     FM240900 31003KT 4SM BR VCFG SCT003
     FM241300 31007KT P6SM SKC=



000
FTUS41 KCTP 240350 AAA
TAFUNV
TAF AMD
KUNV 240350Z 2404/2424 32006KT P6SM BKN040 OVC050
     FM241400 30009KT P6SM SKC=



000
FTUS41 KCTP 240350 AAA
TAFJST
TAF AMD
KJST 240350Z 2404/2424 31012G20KT P6SM SCT045
     FM241300 30010KT P6SM SKC=



000
FTUS41 KCTP 240350 AAA
TAFMDT
TAF AMD
KMDT 240350Z 2404/2424 34009KT P6SM BKN050
     FM241300 30012G20KT P6SM SKC=



000
FTUS41 KCTP 240350 AAA
TAFIPT
TAF AMD
KIPT 240350Z 2404/2424 32007KT P6SM BKN045
     FM241000 29008KT P6SM OVC025
     FM241400 30010KT P6SM SCT050=



000
FTUS41 KCTP 240350 AAA
TAFAOO
TAF AMD
KAOO 240350Z 2404/2424 33006KT P6SM SCT035 BKN045
     FM241000 31009KT P6SM SKC=



000
FTUS41 KCTP 240350 AAA
TAFBFD
TAF AMD
KBFD 240350Z 2404/2424 32009KT P6SM BKN009 BKN045
     FM240900 31003KT 4SM BR VCFG SCT003
     FM241300 31007KT P6SM SKC=



000
FTUS41 KCTP 232333
TAFJST
TAF
KJST 232333Z 2400/2424 31012G20KT P6SM SKC
     FM241300 30010KT P6SM SKC=



000
FTUS41 KCTP 232333
TAFUNV
TAF
KUNV 232333Z 2400/2424 32010G18KT P6SM BKN050
     FM241400 30009KT P6SM SKC=



000
FTUS41 KCTP 232333
TAFBFD
TAF
KBFD 232333Z 2400/2424 32009KT P6SM SKC
     FM240900 31003KT 4SM BR VCFG SCT003
     FM241300 31007KT P6SM SKC=



000
FTUS41 KCTP 232333
TAFIPT
TAF
KIPT 232333Z 2400/2424 32007KT P6SM BKN040
     FM241000 29008KT P6SM OVC025
     FM241400 30010KT P6SM SCT050=



000
FTUS41 KCTP 232333
TAFAOO
TAF
KAOO 232333Z 2400/2424 33016G22KT P6SM SKC
     FM241000 31009KT P6SM SKC=



000
FTUS41 KCTP 232333
TAFMDT
TAF
KMDT 232333Z 2400/2424 35010KT P6SM BKN045
     FM241300 30012G20KT P6SM SKC=



000
FTUS41 KCTP 232146 AAA
TAFIPT
TAF AMD
KIPT 232146Z 2322/2418 33007KT P6SM OVC035
     FM240100 31008KT P6SM BKN035=



000
FTUS41 KCTP 232146 AAA
TAFMDT
TAF AMD
KMDT 232146Z 2322/2418 33009G20KT P6SM SCT035 OVC060
     FM240100 32014KT P6SM BKN040
     FM241300 30012G20KT P6SM SKC=



000
FTUS41 KCTP 232146 AAA
TAFBFD
TAF AMD
KBFD 232146Z 2322/2418 34014G24KT P6SM SKC
     FM240100 32009KT P6SM SKC
     FM240900 31003KT 4SM BR VCFG SCT003
     FM241300 31005KT P6SM SKC=



000
FTUS41 KCTP 232146 AAA
TAFJST
TAF AMD
KJST 232146Z 2322/2418 31014G26KT P6SM SCT040
     FM240100 31010KT P6SM SKC=



000
FTUS41 KCTP 232146 AAA
TAFAOO
TAF AMD
KAOO 232146Z 2322/2418 33016G24KT P6SM BKN050
     FM240000 32009KT P6SM SKC=



000
FTUS41 KCTP 232146 AAA
TAFUNV
TAF AMD
KUNV 232146Z 2322/2418 34012G19KT P6SM BKN035
     FM240100 32009KT P6SM SCT040=



000
FTUS41 KCTP 232146 AAA
TAFIPT
TAF AMD
KIPT 232146Z 2322/2418 33007KT P6SM OVC035
     FM240100 31008KT P6SM BKN035=



000
FTUS41 KCTP 232146 AAA
TAFBFD
TAF AMD
KBFD 232146Z 2322/2418 34014G24KT P6SM SKC
     FM240100 32009KT P6SM SKC
     FM240900 31003KT 4SM BR VCFG SCT003
     FM241300 31005KT P6SM SKC=



000
FTUS41 KCTP 232146 AAA
TAFMDT
TAF AMD
KMDT 232146Z 2322/2418 33009G20KT P6SM SCT035 OVC060
     FM240100 32014KT P6SM BKN040
     FM241300 30012G20KT P6SM SKC=



000
FTUS41 KCTP 232146 AAA
TAFUNV
TAF AMD
KUNV 232146Z 2322/2418 34012G19KT P6SM BKN035
     FM240100 32009KT P6SM SCT040=



000
FTUS41 KCTP 232146 AAA
TAFJST
TAF AMD
KJST 232146Z 2322/2418 31014G26KT P6SM SCT040
     FM240100 31010KT P6SM SKC=



000
FTUS41 KCTP 232146 AAA
TAFAOO
TAF AMD
KAOO 232146Z 2322/2418 33016G24KT P6SM BKN050
     FM240000 32009KT P6SM SKC=



000
FTUS41 KCTP 231743
TAFMDT
TAF
KMDT 231743Z 2318/2418 34018G28KT P6SM OVC035
     FM232000 32019G31KT P6SM BKN040
     FM232300 32014KT P6SM BKN040
     FM241300 30012G20KT P6SM SKC=



000
FTUS41 KCTP 231743
TAFAOO
TAF
KAOO 231743Z 2318/2418 33016G27KT P6SM SCT040
     FM240000 32009KT P6SM SKC=



000
FTUS41 KCTP 231743
TAFBFD
TAF
KBFD 231743Z 2318/2418 36012G24KT P6SM SKC
     FM232300 32007KT P6SM FEW025
     FM240900 31003KT 4SM BR VCFG SCT003
     FM241300 31005KT P6SM SKC=



000
FTUS41 KCTP 231743
TAFJST
TAF
KJST 231743Z 2318/2418 30014G26KT P6SM SCT025
     FM232300 31010KT P6SM SKC=



000
FTUS41 KCTP 231743
TAFIPT
TAF
KIPT 231743Z 2318/2418 33012G25KT P6SM OVC035
     FM232100 32016G27KT P6SM BKN035
     FM232300 30009KT P6SM BKN035=



000
FTUS41 KCTP 231743
TAFUNV
TAF
KUNV 231743Z 2318/2418 34012G16KT P6SM BKN035
     FM232030 33015G25KT P6SM SCT040
     FM240000 32009KT P6SM FEW045=



000
FTUS41 KCTP 231743
TAFJST
TAF
KJST 231743Z 2318/2418 30014G26KT P6SM SCT025
     FM232300 31010KT P6SM SKC=



000
FTUS41 KCTP 231743
TAFIPT
TAF
KIPT 231743Z 2318/2418 33012G25KT P6SM OVC035
     FM232100 32016G27KT P6SM BKN035
     FM232300 30009KT P6SM BKN035=



000
FTUS41 KCTP 231743
TAFBFD
TAF
KBFD 231743Z 2318/2418 36012G24KT P6SM SKC
     FM232300 32007KT P6SM FEW025
     FM240900 31003KT 4SM BR VCFG SCT003
     FM241300 31005KT P6SM SKC=



000
FTUS41 KCTP 231743
TAFAOO
TAF
KAOO 231743Z 2318/2418 33016G27KT P6SM SCT040
     FM240000 32009KT P6SM SKC=



000
FTUS41 KCTP 231743
TAFMDT
TAF
KMDT 231743Z 2318/2418 34018G28KT P6SM OVC035
     FM232000 32019G31KT P6SM BKN040
     FM232300 32014KT P6SM BKN040
     FM241300 30012G20KT P6SM SKC=



000
FTUS41 KCTP 231743
TAFUNV
TAF
KUNV 231743Z 2318/2418 34012G16KT P6SM BKN035
     FM232030 33015G25KT P6SM SCT040
     FM240000 32009KT P6SM FEW045=



000
FTUS41 KCTP 231625 AAA
TAFBFD
TAF AMD
KBFD 231625Z 2316/2412 36012G24KT P6SM SKC
     FM232300 32007KT P6SM FEW025
     FM240900 31003KT 4SM BR VCFG SCT003=



000
FTUS41 KCTP 231625 AAA
TAFJST
TAF AMD
KJST 231625Z 2316/2412 31014KT P6SM OVC015
     FM231900 31014G21KT P6SM SCT035
     FM232300 31010KT P6SM FEW025=



000
FTUS41 KCTP 231625 AAA
TAFMDT
TAF AMD
KMDT 231625Z 2316/2412 34015G25KT P6SM BKN035
     FM232000 32019G31KT P6SM BKN040
     FM232300 32014KT P6SM BKN040=



000
FTUS41 KCTP 231625 AAA
TAFIPT
TAF AMD
KIPT 231625Z 2316/2412 34012G25KT P6SM BKN030
     FM231900 32016G27KT P6SM BKN035
     FM232300 30009KT P6SM BKN035=



000
FTUS41 KCTP 231625 AAA
TAFAOO
TAF AMD
KAOO 231625Z 2316/2412 33014KT P6SM OVC025
     FM231900 33016G27KT P6SM BKN040
     FM240000 32009KT P6SM FEW045=



000
FTUS41 KCTP 231625 AAA
TAFUNV
TAF AMD
KUNV 231625Z 2316/2412 35012G16KT P6SM BKN035
     FM231730 33015G25KT P6SM SCT040
     FM240000 32009KT P6SM FEW045=



000
FTUS41 KCTP 231141
TAFMDT
TAF
KMDT 231141Z 2312/2412 33015G25KT P6SM BKN035 OVC050
     FM231400 32019G31KT P6SM BKN035
     FM231700 32019G31KT P6SM BKN040
     FM232300 32014KT P6SM BKN040=



000
FTUS41 KCTP 231141
TAFUNV
TAF
KUNV 231141Z 2312/2412 34010KT P6SM OVC020
     FM231300 34013G23KT P6SM BKN025
     FM231600 33015G25KT P6SM BKN040
     FM240000 32009KT P6SM FEW045=



000
FTUS41 KCTP 231141
TAFJST
TAF
KJST 231141Z 2312/2412 32013KT P6SM OVC008
     FM231330 32015G25KT P6SM BKN015
     FM231800 31014G21KT P6SM SCT035
     FM232300 31010KT P6SM FEW025=



000
FTUS41 KCTP 231141
TAFBFD
TAF
KBFD 231141Z 2312/2412 35011G21KT P6SM OVC009
     FM231300 34013G23KT P6SM BKN015
     FM231700 33014G24KT P6SM BKN040
     FM232300 32007KT P6SM FEW025
     FM240900 31003KT 4SM BR VCFG SCT003=



000
FTUS41 KCTP 231141
TAFIPT
TAF
KIPT 231141Z 2312/2412 30011KT P6SM BKN025
     FM231300 30015G25KT P6SM BKN030
     FM231700 30016G27KT P6SM BKN035
     FM232300 30009KT P6SM BKN035=



000
FTUS41 KCTP 231141
TAFAOO
TAF
KAOO 231141Z 2312/2412 33014KT P6SM OVC020
     FM231300 33014G24KT P6SM BKN025
     FM231600 33016G27KT P6SM BKN040
     FM240000 32009KT P6SM FEW045=



000
FTUS41 KCTP 230857 AAA
TAFMDT
TAF AMD
KMDT 230857Z 2309/2406 33015G25KT P6SM BKN025 OVC035
     FM231400 32019G31KT P6SM SCT030 BKN040
     FM231700 32019G31KT P6SM BKN040
     FM232300 32014KT P6SM BKN040=



000
FTUS41 KCTP 230855 AAA
TAFIPT
TAF AMD
KIPT 230855Z 2309/2406 30011KT P6SM SCT025 BKN060
     FM231000 30011KT P6SM BKN025
     FM231300 30015G25KT P6SM BKN025
     FM231900 30016G27KT P6SM BKN035
     FM232300 30009KT P6SM BKN035=



000
FTUS41 KCTP 230852 AAA
TAFUNV
TAF AMD
KUNV 230852Z 2309/2406 34010KT P6SM OVC015
     FM231300 34013G23KT P6SM BKN025
     FM231600 33015G25KT P6SM SCT040
     FM240000 32009KT P6SM FEW045=



000
FTUS41 KCTP 230851 AAA
TAFAOO
TAF AMD
KAOO 230851Z 2309/2406 33012KT P6SM OVC015
     FM231300 33014G24KT P6SM BKN025
     FM231600 33016G27KT P6SM SCT040
     FM240000 32009KT P6SM FEW045=



000
FTUS41 KCTP 230848 AAA
TAFJST
TAF AMD
KJST 230848Z 2309/2406 32013KT P6SM OVC006
     FM231400 32015G25KT P6SM OVC015
     FM231800 31014G21KT P6SM SCT035
     FM232300 31010KT P6SM FEW025=



000
FTUS41 KCTP 230845 AAB
TAFBFD
TAF AMD
KBFD 230845Z 2309/2406 35008KT P6SM OVC010
      TEMPO 2310/2312 OVC008
     FM231300 34013G23KT P6SM OVC015
     FM231700 33014G23KT P6SM SCT040
     FM232300 32007KT P6SM FEW025=



000
FTUS41 KCTP 230619 AAA
TAFBFD
TAF AMD
KBFD 230619Z 2306/2406 35008KT P6SM OVC006
     FM231300 34013G23KT P6SM OVC015
     FM231700 33014G23KT P6SM SCT040
     FM232300 32007KT P6SM FEW025=



000
FTUS41 KCTP 230537
TAFJST
TAF
KJST 230537Z 2306/2406 33013KT P6SM OVC006
     FM231400 32015G25KT P6SM OVC015
     FM231800 31014G21KT P6SM SCT035
     FM232300 31010KT P6SM FEW025=



000
FTUS41 KCTP 230537
TAFBFD
TAF
KBFD 230537Z 2306/2406 35008KT P6SM OVC004
     FM231300 34013G23KT P6SM OVC015
     FM231700 33014G23KT P6SM SCT040
     FM232300 32007KT P6SM FEW025=



000
FTUS41 KCTP 230537
TAFAOO
TAF
KAOO 230537Z 2306/2406 33012KT P6SM OVC015
     FM231500 33016G27KT P6SM SCT040
     FM240000 32009KT P6SM FEW045=



000
FTUS41 KCTP 230537
TAFUNV
TAF
KUNV 230537Z 2306/2406 33010KT P6SM OVC015
     FM231500 33015G25KT P6SM SCT040
     FM240000 32009KT P6SM FEW045=



000
FTUS41 KCTP 230537
TAFIPT
TAF
KIPT 230537Z 2306/2406 30011KT P6SM VCSH OVC020
     FM231000 30011KT P6SM OVC020
     FM231300 30015G25KT P6SM OVC025
     FM231900 30016G27KT P6SM BKN035
     FM232300 30009KT P6SM BKN035=



000
FTUS41 KCTP 230537
TAFMDT
TAF
KMDT 230537Z 2306/2406 33015G25KT P6SM VCSH BKN025 OVC035
     FM230900 32014KT P6SM BKN025 OVC060
     FM231300 32019G31KT P6SM BKN030
     FM231700 32019G31KT P6SM BKN040
     FM232300 32014KT P6SM BKN040=



000
FTUS41 KCTP 230239 AAA
TAFBFD
TAF AMD
KBFD 230239Z 2303/2324 36008KT P6SM OVC005
     FM231300 34010G15KT P6SM OVC015
     FM231500 34012G19KT P6SM OVC025
     FM231800 33014G20KT P6SM SKC=



000
FTUS41 KCTP 230239 AAB
TAFAOO
TAF AMD
KAOO 230239Z 2303/2324 35008KT P6SM OVC025
     FM230500 32012KT P6SM OVC015
     FM231600 33015G23KT P6SM OVC050=



000
FTUS41 KCTP 230239 AAA
TAFJST
TAF AMD
KJST 230239Z 2303/2324 32012G18KT P6SM OVC009
     FM231300 33012G20KT P6SM OVC020
     FM231800 31014G21KT P6SM SKC=



000
FTUS41 KCTP 230239 AAB
TAFIPT
TAF AMD
KIPT 230239Z 2303/2324 32010G15KT P6SM VCSH OVC022
     FM231500 32012G18KT P6SM BKN015 OVC025
     FM231900 30014G22KT P6SM OVC050=



000
FTUS41 KCTP 230239 AAB
TAFUNV
TAF AMD
KUNV 230239Z 2303/2324 36012G18KT P6SM BKN015 OVC025
     FM231300 33013G20KT P6SM OVC025
     FM231600 34014G21KT P6SM OVC050=



000
FTUS41 KCTP 230239 AAA
TAFMDT
TAF AMD
KMDT 230239Z 2303/2324 35010G19KT P6SM BKN025 OVC035
     FM231800 32024G32KT P6SM OVC050=



000
FTUS41 KCTP 230112 AAA
TAFUNV
TAF AMD
KUNV 230112Z 2301/2324 36012G18KT P6SM BKN015 OVC025
     FM231300 33013G20KT P6SM OVC025
     FM231600 34014G21KT P6SM OVC050=



000
FTUS41 KCTP 230112 AAA
TAFUNV
TAF AMD
KUNV 230112Z 2301/2324 36012G18KT P6SM BKN015 OVC025
     FM231300 33013G20KT P6SM OVC025
     FM231600 34014G21KT P6SM OVC050=



000
FTUS41 KCTP 230112 AAA
TAFAOO
TAF AMD
KAOO 230112Z 2301/2324 35012G18KT P6SM OVC025
     FM231600 33015G23KT P6SM OVC050=



000
FTUS41 KCTP 230112 AAA
TAFAOO
TAF AMD
KAOO 230112Z 2301/2324 35012G18KT P6SM OVC025
     FM231600 33015G23KT P6SM OVC050=



000
FTUS41 KCTP 230112 AAA
TAFIPT
TAF AMD
KIPT 230112Z 2301/2324 30009KT P6SM VCSH OVC015
     FM231500 32012G18KT P6SM BKN015 OVC025
     FM231900 30014G22KT P6SM OVC050=



000
FTUS41 KCTP 230112 AAA
TAFIPT
TAF AMD
KIPT 230112Z 2301/2324 30009KT P6SM VCSH OVC015
     FM231500 32012G18KT P6SM BKN015 OVC025
     FM231900 30014G22KT P6SM OVC050=



000
FTUS41 KCTP 222327
TAFAOO
TAF
KAOO 222327Z 2300/2324 35012G18KT P6SM BKN015 OVC025
     FM230500 33010KT P6SM OVC025
     FM231600 33015G23KT P6SM OVC050=



000
FTUS41 KCTP 222327
TAFMDT
TAF
KMDT 222327Z 2300/2324 35010G19KT P6SM BKN025 OVC035
     FM231800 32024G32KT P6SM OVC050=



000
FTUS41 KCTP 222327
TAFIPT
TAF
KIPT 222327Z 2300/2324 30009KT P6SM VCSH OVC025
     FM230300 30010KT P6SM VCSH OVC015
     FM231500 32012G18KT P6SM BKN015 OVC025
     FM231900 30014G22KT P6SM OVC050=



000
FTUS41 KCTP 222327
TAFJST
TAF
KJST 222327Z 2300/2324 32012G18KT P6SM OVC009
     FM231300 33012G20KT P6SM OVC020
     FM231800 31014G21KT P6SM SKC=



000
FTUS41 KCTP 222327
TAFUNV
TAF
KUNV 222327Z 2300/2324 36012G18KT P6SM BKN025 OVC035
     FM230200 32010KT P6SM BKN015 OVC025
     FM231300 33013G20KT P6SM OVC025
     FM231600 34014G21KT P6SM OVC050=



000
FTUS41 KCTP 222327
TAFBFD
TAF
KBFD 222327Z 2300/2324 36008KT P6SM OVC005
     FM231300 34010G15KT P6SM OVC015
     FM231500 34012G19KT P6SM OVC025
     FM231800 33014G20KT P6SM SKC=



000
FTUS41 KCTP 222133 AAB
TAFAOO
TAF AMD
KAOO 222133Z 2222/2318 35012G18KT P6SM BKN025 OVC035
     FM230500 33010KT P6SM OVC025=



000
FTUS41 KCTP 222133 AAA
TAFJST
TAF AMD
KJST 222133Z 2222/2318 32009KT P6SM OVC006
     FM231300 33012G20KT P6SM OVC020=



000
FTUS41 KCTP 222133 AAB
TAFBFD
TAF AMD
KBFD 222133Z 2222/2318 36008KT P6SM OVC005
     FM231300 34007KT P6SM OVC020
     FM231500 34012G19KT P6SM OVC025=



000
FTUS41 KCTP 222133 AAB
TAFUNV
TAF AMD
KUNV 222133Z 2222/2318 36012G18KT P6SM BKN025 OVC035
     FM230200 32010KT P6SM BKN015 OVC025
     FM231300 33013G20KT P6SM OVC025=



000
FTUS41 KCTP 222133 AAB
TAFMDT
TAF AMD
KMDT 222133Z 2222/2318 35010G19KT P6SM BKN025 OVC035=



000
FTUS41 KCTP 222133 AAA
TAFIPT
TAF AMD
KIPT 222133Z 2222/2318 30009KT P6SM OVC025
     FM230700 32010KT P6SM BKN015 OVC025
     FM231500 31013G20KT P6SM OVC025=



000
FTUS41 KCTP 222022 AAA
TAFUNV
TAF AMD
KUNV 222022Z 2220/2318 36012G18KT P6SM BKN025 OVC035
     FM230200 32010KT P6SM BKN015 OVC025=



000
FTUS41 KCTP 222022 AAA
TAFUNV
TAF AMD
KUNV 222022Z 2220/2318 36012G18KT P6SM BKN025 OVC035
     FM230200 32010KT P6SM BKN015 OVC025=



000
FTUS41 KCTP 222021 AAA
TAFAOO
TAF AMD
KAOO 222021Z 2220/2318 35012G18KT P6SM SCT024 OVC035
     FM222300 34012G18KT P6SM BKN025 OVC040
     FM230500 33010KT P6SM OVC025=



000
FTUS41 KCTP 222021 AAA
TAFAOO
TAF AMD
KAOO 222021Z 2220/2318 35012G18KT P6SM SCT024 OVC035
     FM222300 34012G18KT P6SM BKN025 OVC040
     FM230500 33010KT P6SM OVC025=



000
FTUS41 KCTP 222017 AAA
TAFBFD
TAF AMD
KBFD 222017Z 2220/2318 36008KT P6SM OVC005
     FM231300 34007KT P6SM VCSH OVC020
     FM231500 34012G19KT P6SM OVC025=



000
FTUS41 KCTP 222017 AAA
TAFBFD
TAF AMD
KBFD 222017Z 2220/2318 36008KT P6SM OVC005
     FM231300 34007KT P6SM VCSH OVC020
     FM231500 34012G19KT P6SM OVC025=



    US Dept of Commerce
    National Oceanic and Atmospheric Administration
    National Weather Service
    1325 East West Highway
    Silver Spring, MD 20910
    Page Author: NWS Internet Services Team
Disclaimer
Information Quality
Credits
Glossary
Privacy Policy
Freedom of Information Act (FOIA)
About Us
Career Opportunities